This is the latest recevied weather packets stored in our database for station/object N8QQQ. If no packets are shown the sender has not sent any weather packets the latest 10 day(s).
| Time | Temp. | Humidity | Pressure | Rain* | Wind** | Luminosity | Snow |
|---|---|---|---|---|---|---|---|
| 1778003051 | 5.56° C | 51% | 1005.4 hPa | 0 mm | - | 122 W/m² | - |
| 1778002746 | 5.56° C | 52% | 1005.1 hPa | 0 mm | - | 153 W/m² | - |
| 1778002443 | 5.56° C | 51% | 1005.2 hPa | 0 mm | - | 187 W/m² | - |
| 1778002140 | 5.56° C | 51% | 1005.3 hPa | 0 mm | - | 242 W/m² | - |
| 1778001838 | 5.56° C | 51% | 1005.1 hPa | 0 mm | - | 193 W/m² | - |
| 1778001537 | 5° C | 52% | 1005.3 hPa | 0 mm | - | 196 W/m² | - |
| 1778001234 | 5.56° C | 52% | 1005.1 hPa | 0 mm | - | 114 W/m² | - |
| 1778000931 | 5.56° C | 49% | 1005 hPa | 0 mm | - | 152 W/m² | - |
| 1778000628 | 5° C | 52% | 1005 hPa | 0 mm | - | 171 W/m² | - |
| 1778000323 | 5.56° C | 51% | 1004.9 hPa | 0 mm | - | 188 W/m² | - |
| 1778000019 | 5° C | 53% | 1005.1 hPa | 0 mm | - | 202 W/m² | - |
| 1777999715 | 5° C | 53% | 1005.1 hPa | 0 mm | - | 146 W/m² | - |
| 1777999411 | 5.56° C | 52% | 1004.9 hPa | 0 mm | - | 132 W/m² | - |
| 1777999110 | 5.56° C | 51% | 1004.9 hPa | 0 mm | - | 239 W/m² | - |
| 1777998808 | 5.56° C | 51% | 1004.7 hPa | 0 mm | - | 180 W/m² | - |
| 1777998506 | 5° C | 52% | 1004.9 hPa | 0 mm | - | 726 W/m² | - |
| 1777998202 | 5.56° C | 53% | 1005.2 hPa | 0 mm | - | 195 W/m² | - |
| 1777997900 | 5.56° C | 51% | 1004.9 hPa | 0 mm | - | 805 W/m² | - |
| 1777997597 | 6.11° C | 51% | 1004.9 hPa | 0 mm | - | 202 W/m² | - |
| 1777997294 | 5.56° C | 53% | 1004.7 hPa | 0 mm | - | 673 W/m² | - |
| 1777996992 | 5.56° C | 53% | 1005.1 hPa | 0 mm | - | 507 W/m² | - |
| 1777996688 | 5° C | 58% | 1005 hPa | 0 mm | - | 669 W/m² | - |
| 1777996384 | 5.56° C | 58% | 1005 hPa | 0 mm | - | 162 W/m² | - |
| 1777996080 | 4.44° C | 58% | 1004.9 hPa | 0 mm | - | 262 W/m² | - |
| 1777995777 | 5° C | 58% | 1005 hPa | 0 mm | - | 139 W/m² | - |
* Rain latest hour (hover to see other rain measurements)
** Current wind speed in m/s (hover to see current wind gust speed)